createdAt,value
2018-06-24T00:02:13.269Z,73.50
2018-06-24T00:04:41.760Z,73.70
2018-06-24T00:07:10.399Z,73.70
2018-06-24T00:09:38.901Z,74.40
2018-06-24T00:12:07.563Z,74.40
2018-06-24T00:14:36.062Z,74.50
2018-06-24T00:17:04.703Z,74.30
2018-06-24T00:19:33.113Z,74.00
2018-06-24T00:22:02.168Z,74.10
2018-06-24T00:24:30.693Z,73.80
2018-06-24T00:26:59.312Z,73.90
2018-06-24T00:29:27.807Z,73.70
2018-06-24T00:31:56.298Z,73.50
2018-06-24T00:34:24.760Z,73.60
2018-06-24T00:36:53.432Z,73.30
2018-06-24T00:39:22.020Z,73.00
2018-06-24T00:41:50.663Z,72.90
2018-06-24T00:44:19.209Z,73.10
2018-06-24T00:46:47.927Z,73.30
2018-06-24T00:49:17.017Z,73.30
2018-06-24T00:51:45.944Z,73.20
2018-06-24T00:54:14.438Z,73.60
2018-06-24T00:56:43.068Z,73.20
2018-06-24T00:59:23.946Z,73.20
2018-06-24T01:01:52.443Z,73.20
2018-06-24T01:04:21.107Z,73.30
2018-06-24T01:06:49.644Z,72.90
2018-06-24T01:09:18.310Z,73.10
2018-06-24T01:11:46.906Z,74.50
2018-06-24T01:14:15.792Z,74.70
2018-06-24T01:16:44.611Z,74.50
2018-06-24T01:19:13.280Z,74.40
2018-06-24T01:21:41.777Z,74.30
2018-06-24T01:24:10.337Z,73.50
2018-06-24T01:26:38.839Z,73.60
2018-06-24T01:29:07.434Z,74.10
2018-06-24T01:31:35.906Z,74.50
2018-06-24T01:34:04.819Z,74.30
2018-06-24T01:36:33.342Z,73.60
2018-06-24T01:39:01.907Z,74.50
2018-06-24T01:41:30.346Z,74.10
2018-06-24T01:43:58.926Z,74.70
2018-06-24T01:46:28.530Z,73.70
2018-06-24T01:48:57.229Z,73.20
2018-06-24T01:51:25.954Z,73.30
2018-06-24T01:53:54.514Z,74.10
2018-06-24T01:56:23.072Z,74.10
2018-06-24T01:58:51.592Z,74.00
2018-06-24T02:01:20.260Z,73.80
2018-06-24T02:03:48.740Z,73.80
2018-06-24T02:06:17.861Z,73.70
2018-06-24T02:08:46.743Z,73.60
2018-06-24T02:11:15.573Z,73.30
2018-06-24T02:13:44.149Z,73.80
2018-06-24T02:16:12.629Z,73.90
2018-06-24T02:18:41.313Z,74.20
2018-06-24T02:21:09.914Z,73.90
2018-06-24T02:23:38.499Z,74.30
2018-06-24T02:26:06.961Z,74.20
2018-06-24T02:28:35.466Z,74.10
2018-06-24T02:31:04.092Z,74.00
2018-06-24T02:35:01.849Z,73.90
2018-06-24T02:37:30.486Z,74.10
2018-06-24T02:39:58.972Z,73.40
2018-06-24T02:42:27.654Z,73.90
2018-06-24T02:44:56.062Z,74.50
2018-06-24T02:47:24.637Z,75.00
2018-06-24T02:49:53.111Z,74.70
2018-06-24T02:52:21.714Z,74.40
2018-06-24T02:54:50.210Z,74.00
2018-06-24T02:57:18.867Z,73.30
2018-06-24T02:59:47.323Z,73.80
2018-06-24T03:02:16.731Z,73.80
2018-06-24T03:04:45.141Z,73.70
2018-06-24T03:07:13.752Z,73.70
2018-06-24T03:09:42.294Z,73.70
2018-06-24T03:12:10.975Z,73.50
2018-06-24T03:14:39.406Z,73.60
2018-06-24T03:17:08.942Z,73.40
2018-06-24T03:19:37.513Z,73.50
2018-06-24T03:22:06.247Z,73.70
2018-06-24T03:24:34.667Z,73.70
2018-06-24T03:27:03.328Z,73.70
2018-06-24T03:29:31.840Z,73.70
2018-06-24T03:32:00.561Z,74.50
2018-06-24T03:34:28.971Z,75.70
2018-06-24T03:36:57.702Z,76.00
2018-06-24T03:39:26.258Z,75.80
2018-06-24T03:41:54.921Z,76.30
2018-06-24T03:44:23.453Z,76.20
2018-06-24T03:46:52.467Z,75.90
2018-06-24T03:49:21.272Z,75.60
2018-06-24T03:54:18.701Z,75.50
2018-06-24T05:18:51.005Z,75.50
2018-06-24T05:21:19.436Z,76.80
2018-06-24T05:23:48.041Z,76.90
2018-06-24T05:26:16.467Z,76.90
2018-06-24T05:28:44.964Z,77.20
2018-06-24T05:31:13.431Z,77.10
2018-06-24T05:33:42.115Z,77.00
2018-06-24T05:36:10.552Z,76.90
2018-06-24T05:38:39.189Z,77.20
2018-06-24T05:41:07.654Z,77.30
2018-06-24T05:43:36.286Z,77.50
2018-06-24T05:46:04.731Z,78.00
2018-06-24T05:48:33.615Z,77.00
2018-06-24T05:51:02.240Z,77.80
2018-06-24T05:53:31.119Z,78.20
2018-06-24T05:55:59.657Z,78.00
2018-06-24T05:58:29.188Z,77.80
2018-06-24T06:00:58.762Z,77.20
2018-06-24T06:03:27.938Z,76.80
2018-06-24T06:08:25.392Z,76.80
2018-06-24T06:10:53.761Z,76.90
2018-06-24T06:13:22.223Z,76.30
2018-06-24T06:15:50.689Z,76.30
2018-06-24T06:18:19.514Z,76.50
2018-06-24T06:23:25.456Z,75.30
2018-06-24T06:25:53.944Z,75.90
2018-06-24T06:28:22.379Z,75.10
2018-06-24T06:30:50.799Z,75.70
2018-06-24T06:33:19.738Z,76.30
2018-06-24T06:35:48.263Z,75.50
2018-06-24T06:38:16.882Z,75.20
2018-06-24T06:40:45.368Z,75.50
2018-06-24T06:43:13.973Z,75.90
2018-06-24T06:45:42.737Z,75.40
2018-06-24T06:48:11.247Z,75.10
2018-06-24T06:50:39.852Z,74.60
2018-06-24T06:53:08.279Z,74.80
2018-06-24T06:55:36.827Z,75.00
2018-06-24T06:58:05.632Z,74.20
2018-06-24T07:00:34.065Z,74.70
2018-06-24T07:03:02.773Z,74.90
2018-06-24T07:05:31.204Z,75.00
2018-06-24T07:07:59.844Z,75.10
2018-06-24T07:10:28.588Z,74.70
2018-06-24T07:12:57.204Z,74.30
2018-06-24T07:15:25.614Z,74.30
2018-06-24T07:17:54.155Z,74.50
2018-06-24T07:20:22.907Z,73.90
2018-06-24T07:22:51.392Z,74.50
2018-06-24T07:25:20.008Z,73.90
2018-06-24T07:27:48.485Z,73.40
2018-06-24T07:30:17.275Z,72.60
2018-06-24T07:32:45.693Z,73.10
2018-06-24T07:35:14.254Z,72.20
2018-06-24T07:37:42.774Z,71.60
2018-06-24T07:40:11.332Z,70.70
2018-06-24T07:42:39.806Z,71.30
2018-06-24T07:45:08.378Z,70.90
2018-06-24T07:47:37.042Z,70.80
2018-06-24T07:50:05.584Z,71.00
2018-06-24T07:52:34.092Z,69.90
2018-06-24T07:55:02.661Z,70.30
2018-06-24T07:57:31.158Z,70.10
2018-06-24T07:59:59.734Z,68.70
2018-06-24T08:02:28.212Z,68.20
2018-06-24T08:04:56.695Z,69.40
2018-06-24T08:07:25.197Z,70.20
2018-06-24T08:09:53.609Z,69.60
2018-06-24T08:12:22.108Z,70.10
2018-06-24T08:14:50.725Z,68.20
2018-06-24T08:17:19.266Z,67.40
2018-06-24T08:19:47.694Z,68.20
2018-06-24T08:22:16.335Z,68.20
2018-06-24T08:24:44.872Z,69.20
2018-06-24T08:27:13.339Z,69.30
2018-06-24T08:29:41.981Z,68.00
2018-06-24T08:32:10.452Z,68.30
2018-06-24T08:34:39.029Z,69.30
2018-06-24T08:37:07.534Z,68.80
2018-06-24T08:39:36.192Z,69.30
2018-06-24T08:42:04.955Z,69.30
2018-06-24T08:44:33.488Z,69.60
2018-06-24T08:47:01.898Z,69.70
2018-06-24T08:49:30.435Z,68.00
2018-06-24T08:51:58.860Z,67.40
2018-06-24T08:54:28.424Z,68.80
2018-06-24T08:56:57.344Z,68.90
2018-06-24T08:59:25.932Z,67.30
2018-06-24T09:01:54.394Z,67.40
2018-06-24T09:04:23.008Z,68.30
2018-06-24T09:06:51.486Z,68.10
2018-06-24T09:09:20.034Z,68.90
2018-06-24T09:11:48.491Z,68.70
2018-06-24T09:14:17.106Z,68.40
2018-06-24T09:16:45.584Z,68.80
2018-06-24T09:19:14.172Z,67.20
2018-06-24T09:21:42.574Z,66.70
2018-06-24T09:24:11.049Z,67.10
2018-06-24T09:26:39.473Z,66.60
2018-06-24T09:29:07.881Z,66.70
2018-06-24T09:31:36.923Z,64.40
2018-06-24T09:34:05.408Z,67.80
2018-06-24T09:39:02.175Z,68.20
2018-06-24T09:41:30.684Z,67.00
2018-06-24T09:43:59.719Z,67.20
2018-06-24T09:46:28.289Z,67.50
2018-06-24T09:48:56.782Z,67.30
2018-06-24T09:51:25.302Z,67.80
2018-06-24T09:53:53.698Z,68.20
2018-06-24T09:56:22.284Z,67.00
2018-06-24T09:58:50.651Z,66.70
2018-06-24T10:01:19.213Z,67.60
2018-06-24T10:03:47.660Z,68.10
2018-06-24T10:06:16.145Z,68.30
2018-06-24T10:08:44.659Z,68.50
2018-06-24T10:11:13.276Z,68.20
2018-06-24T10:13:41.869Z,68.10
2018-06-24T10:16:10.289Z,68.10
2018-06-24T10:18:38.727Z,66.50
2018-06-24T10:21:07.276Z,66.10
2018-06-24T10:23:35.726Z,66.60
2018-06-24T10:26:04.276Z,67.20
2018-06-24T10:28:32.822Z,66.80
2018-06-24T10:31:02.697Z,66.20
2018-06-24T10:33:31.140Z,66.60
2018-06-24T10:35:59.852Z,65.90
2018-06-24T10:38:28.869Z,66.40
2018-06-24T10:40:58.063Z,66.80
2018-06-24T10:43:27.958Z,67.10
2018-06-24T10:45:57.376Z,67.50
2018-06-24T10:48:25.873Z,65.60
2018-06-24T10:50:54.464Z,67.10
2018-06-24T10:54:25.901Z,67.00
2018-06-24T10:56:55.045Z,67.10
2018-06-24T10:59:23.523Z,66.70
2018-06-24T11:01:52.128Z,66.50
2018-06-24T11:04:20.795Z,65.30
2018-06-24T11:06:49.361Z,66.10
2018-06-24T11:09:17.749Z,66.80
2018-06-24T11:11:46.272Z,66.90
2018-06-24T11:14:14.762Z,66.00
2018-06-24T11:16:43.417Z,65.70
2018-06-24T11:21:40.499Z,65.70
2018-06-24T11:24:09.006Z,66.50
2018-06-24T11:26:37.576Z,64.60
2018-06-24T11:29:06.029Z,64.40
2018-06-24T11:31:34.550Z,65.50
2018-06-24T11:34:02.973Z,64.50
2018-06-24T11:36:31.509Z,65.50
2018-06-24T11:38:59.954Z,64.40
2018-06-24T11:41:29.229Z,64.10
2018-06-24T11:43:57.709Z,63.30
2018-06-24T11:46:26.542Z,63.10
2018-06-24T11:48:55.009Z,64.70
2018-06-24T11:51:23.647Z,64.80
2018-06-24T11:53:52.096Z,64.60
2018-06-24T11:56:20.772Z,64.90
2018-06-24T11:58:49.335Z,64.60
2018-06-24T12:01:18.000Z,64.20
2018-06-24T12:03:46.441Z,63.70
2018-06-24T12:06:14.988Z,63.40
2018-06-24T12:08:43.870Z,63.50
2018-06-24T12:11:13.457Z,63.50
2018-06-24T12:13:41.989Z,64.10
2018-06-24T12:16:10.533Z,63.80
2018-06-24T12:18:39.144Z,63.30
2018-06-24T12:21:07.594Z,62.70
2018-06-24T12:23:36.140Z,64.00
2018-06-24T12:26:05.445Z,64.10
2018-06-24T12:28:34.043Z,63.30
2018-06-24T12:31:02.892Z,63.60
2018-06-24T12:33:31.414Z,64.30
2018-06-24T12:35:59.999Z,65.00
2018-06-24T12:38:29.330Z,64.60
2018-06-24T12:40:57.767Z,65.00
2018-06-24T12:43:26.613Z,62.50
2018-06-24T12:45:55.242Z,61.40
2018-06-24T12:48:23.823Z,62.70
2018-06-24T12:50:52.649Z,63.30
2018-06-24T12:53:21.326Z,63.20
2018-06-24T12:55:50.118Z,63.50
2018-06-24T12:58:19.214Z,64.40
2018-06-24T13:00:48.118Z,65.40
2018-06-24T13:03:16.438Z,65.80
2018-06-24T13:05:44.910Z,65.10
2018-06-24T13:08:13.598Z,65.00
2018-06-24T13:10:42.013Z,64.50
2018-06-24T13:13:10.493Z,65.00
2018-06-24T13:15:38.994Z,64.60
2018-06-24T13:18:07.676Z,64.90
2018-06-24T13:20:36.269Z,65.10
2018-06-24T13:23:04.831Z,64.20
2018-06-24T13:25:33.260Z,62.70
2018-06-24T13:28:01.859Z,63.30
2018-06-24T13:30:30.340Z,64.40
2018-06-24T13:32:59.586Z,64.10
2018-06-24T13:35:28.660Z,62.80
2018-06-24T13:37:57.879Z,63.00
2018-06-24T13:40:27.012Z,64.30
2018-06-24T13:42:55.872Z,62.80
2018-06-24T13:45:24.283Z,64.40
2018-06-24T13:47:53.141Z,63.60
2018-06-24T13:50:21.661Z,64.30
2018-06-24T13:52:50.186Z,64.90
2018-06-24T13:55:18.647Z,64.80
2018-06-24T13:57:47.232Z,63.10
2018-06-24T14:00:15.714Z,63.00
2018-06-24T14:02:44.197Z,63.50
2018-06-24T14:05:12.677Z,63.40
2018-06-24T14:07:41.372Z,62.80
2018-06-24T14:10:09.830Z,63.40
2018-06-24T14:12:38.334Z,63.10
2018-06-24T14:15:06.775Z,63.30
2018-06-24T14:17:35.415Z,63.10
2018-06-24T14:20:03.996Z,63.10
2018-06-24T14:22:32.595Z,62.40
2018-06-24T14:25:01.107Z,62.70
2018-06-24T14:27:29.746Z,62.90
2018-06-24T14:29:58.592Z,63.70
2018-06-24T14:32:27.461Z,63.20
2018-06-24T14:34:55.913Z,62.70
2018-06-24T14:37:24.513Z,63.50
2018-06-24T14:39:53.347Z,61.80
2018-06-24T14:42:21.945Z,63.70
2018-06-24T14:44:50.335Z,62.70
2018-06-24T14:47:18.940Z,63.00
2018-06-24T14:49:47.454Z,63.20
2018-06-24T14:52:16.120Z,62.60
2018-06-24T14:54:44.570Z,61.60
2018-06-24T14:57:13.223Z,62.80
2018-06-24T14:59:41.869Z,62.20
2018-06-24T15:02:10.371Z,63.00
2018-06-24T15:04:38.840Z,63.30
2018-06-24T15:07:07.774Z,63.90
2018-06-24T15:09:36.331Z,62.20
2018-06-24T15:12:04.956Z,63.10
2018-06-24T15:14:33.724Z,63.80
2018-06-24T15:17:02.175Z,63.90
2018-06-24T15:19:30.962Z,64.10
2018-06-24T15:21:59.951Z,63.50
2018-06-24T15:24:29.602Z,63.60
2018-06-24T15:26:58.859Z,62.40
2018-06-24T15:29:27.520Z,61.70
2018-06-24T15:31:56.096Z,62.90
2018-06-24T15:34:24.596Z,61.00
2018-06-24T15:36:53.054Z,62.70
2018-06-24T15:39:21.702Z,62.40
2018-06-24T15:41:50.607Z,62.80
2018-06-24T15:44:19.228Z,61.70
2018-06-24T15:46:47.718Z,61.90
2018-06-24T15:49:16.300Z,61.00
2018-06-24T15:51:44.830Z,60.90
2018-06-24T15:54:13.381Z,60.70
2018-06-24T15:56:41.985Z,61.50
2018-06-24T15:59:10.763Z,61.00
2018-06-24T16:01:39.208Z,60.60
2018-06-24T16:04:07.800Z,61.70
2018-06-24T16:06:36.315Z,61.40
2018-06-24T16:09:08.787Z,61.90
2018-06-24T16:14:05.668Z,62.80
2018-06-24T16:16:34.473Z,61.60
2018-06-24T16:19:03.019Z,61.40
2018-06-24T16:21:31.537Z,61.90
2018-06-24T16:24:00.082Z,62.60
2018-06-24T16:26:28.550Z,63.20
2018-06-24T16:28:58.041Z,62.80
2018-06-24T16:31:26.677Z,63.00
2018-06-24T16:33:55.329Z,62.20
2018-06-24T16:36:23.783Z,61.90
2018-06-24T16:38:52.402Z,61.60
2018-06-24T16:41:21.185Z,62.10
2018-06-24T16:43:49.715Z,61.50
2018-06-24T16:46:18.321Z,62.30
2018-06-24T16:48:46.828Z,61.90
2018-06-24T16:51:15.240Z,62.40
2018-06-24T16:53:43.714Z,62.20
2018-06-24T16:56:12.285Z,63.60
2018-06-24T16:58:40.850Z,61.80
2018-06-24T17:01:09.273Z,62.30
2018-06-24T17:03:37.890Z,62.50
2018-06-24T17:06:06.303Z,63.30
2018-06-24T17:08:34.946Z,62.90
2018-06-24T17:11:03.367Z,62.40
2018-06-24T17:13:31.864Z,62.80
2018-06-24T17:16:00.297Z,63.30
2018-06-24T17:20:57.973Z,64.50
2018-06-24T17:23:26.794Z,64.40
2018-06-24T17:25:55.198Z,64.90
2018-06-24T17:28:23.674Z,63.90
2018-06-24T17:30:52.087Z,63.60
2018-06-24T17:33:20.765Z,63.80
2018-06-24T17:35:49.285Z,63.90
2018-06-24T17:38:17.856Z,64.40
2018-06-24T17:40:46.294Z,65.40
2018-06-24T17:43:15.242Z,64.10
2018-06-24T17:45:43.716Z,65.10
2018-06-24T17:48:12.308Z,65.20
2018-06-24T17:50:40.760Z,66.50
2018-06-24T17:53:09.271Z,66.60
2018-06-24T17:55:37.910Z,66.10
2018-06-24T17:58:06.567Z,65.60
2018-06-24T18:00:34.981Z,65.60
2018-06-24T18:03:03.525Z,65.80
2018-06-24T18:05:31.996Z,65.40
2018-06-24T18:08:00.600Z,64.60
2018-06-24T18:10:29.666Z,64.70
2018-06-24T18:12:59.239Z,64.20
2018-06-24T18:15:27.697Z,64.80
2018-06-24T18:17:56.884Z,64.50
2018-06-24T18:20:26.025Z,64.80
2018-06-24T18:22:54.640Z,64.50
2018-06-24T18:25:23.101Z,64.60
2018-06-24T18:27:51.726Z,64.70
2018-06-24T18:30:20.430Z,64.40
2018-06-24T18:35:17.189Z,64.40
2018-06-24T18:37:45.721Z,64.40
2018-06-24T18:40:14.177Z,64.50
2018-06-24T18:42:42.777Z,64.30
2018-06-24T18:45:11.241Z,64.10
2018-06-24T18:47:39.755Z,63.80
2018-06-24T18:50:08.215Z,64.20
2018-06-24T18:52:36.791Z,64.50
2018-06-24T18:55:05.792Z,64.60
2018-06-24T18:57:34.279Z,64.80
2018-06-24T19:00:02.766Z,64.80
2018-06-24T19:02:31.495Z,64.00
2018-06-24T19:05:00.031Z,64.60
2018-06-24T19:07:29.147Z,63.30
2018-06-24T19:09:57.743Z,64.50
2018-06-24T19:12:26.276Z,63.10
2018-06-24T19:14:54.758Z,63.90
2018-06-24T19:17:23.773Z,64.90
2018-06-24T19:19:52.665Z,65.30
2018-06-24T19:22:21.223Z,66.10
2018-06-24T19:24:49.745Z,67.80
2018-06-24T19:27:18.332Z,67.90
2018-06-24T19:29:46.783Z,68.40
2018-06-24T19:32:15.290Z,69.00
2018-06-24T19:34:43.724Z,69.90
2018-06-24T19:37:12.371Z,69.90
2018-06-24T19:39:40.817Z,70.10
2018-06-24T19:42:09.356Z,70.30
2018-06-24T19:44:37.937Z,70.50
2018-06-24T19:47:06.407Z,70.60
2018-06-24T19:49:35.025Z,69.50
2018-06-24T19:52:03.500Z,69.90
2018-06-24T19:54:32.106Z,69.90
2018-06-24T19:57:00.640Z,70.50
2018-06-24T19:59:29.866Z,70.60
2018-06-24T20:01:58.928Z,70.30
2018-06-24T20:04:27.740Z,70.40
2018-06-24T20:06:56.459Z,70.70
2018-06-24T20:09:25.960Z,70.60
2018-06-24T20:11:54.521Z,70.50
2018-06-24T20:14:22.999Z,70.40
2018-06-24T20:16:51.527Z,69.90
2018-06-24T20:19:20.089Z,67.90
2018-06-24T20:21:48.534Z,67.70
2018-06-24T20:24:17.050Z,68.10
2018-06-24T20:26:45.532Z,68.80
2018-06-24T20:29:14.086Z,68.90
2018-06-24T20:31:42.561Z,69.10
2018-06-24T20:34:11.184Z,69.90
2018-06-24T20:36:40.001Z,69.60
2018-06-24T20:39:09.644Z,69.70
2018-06-24T20:41:38.238Z,70.10
2018-06-24T20:44:08.182Z,70.30
2018-06-24T20:46:36.632Z,70.50
2018-06-24T20:49:05.391Z,70.00
2018-06-24T20:51:33.872Z,70.00
2018-06-24T20:54:02.543Z,70.20
2018-06-24T20:56:31.001Z,70.30
2018-06-24T20:59:00.656Z,70.50
2018-06-24T21:01:29.503Z,70.60
2018-06-24T21:03:58.788Z,70.40
2018-06-24T21:06:27.782Z,70.00
2018-06-24T21:08:56.387Z,69.00
2018-06-24T21:11:24.871Z,68.50
2018-06-24T21:13:53.349Z,67.80
2018-06-24T21:16:21.809Z,67.80
2018-06-24T21:18:50.340Z,68.40
2018-06-24T21:21:18.865Z,68.10
2018-06-24T21:23:47.428Z,68.80
2018-06-24T21:26:15.964Z,69.70
2018-06-24T21:28:44.882Z,70.10
2018-06-24T21:31:13.380Z,70.60
2018-06-24T21:33:41.893Z,70.30
2018-06-24T21:36:10.370Z,70.50
2018-06-24T21:38:39.025Z,70.00
2018-06-24T21:41:07.547Z,70.40
2018-06-24T21:43:36.156Z,70.30
2018-06-24T21:46:05.565Z,70.00
2018-06-24T21:48:34.364Z,70.30
2018-06-24T21:51:02.828Z,70.10
2018-06-24T21:53:31.425Z,70.10
2018-06-24T21:55:59.930Z,69.80
2018-06-24T21:58:29.224Z,69.20
2018-06-24T22:00:58.852Z,67.90
2018-06-24T22:03:27.793Z,68.80
2018-06-24T22:08:24.473Z,69.20
2018-06-24T22:10:52.912Z,69.90
2018-06-24T22:13:21.368Z,69.70
2018-06-24T22:15:49.924Z,68.00
2018-06-24T22:18:18.822Z,69.20
2018-06-24T22:20:47.389Z,68.90
2018-06-24T22:23:15.883Z,69.50
2018-06-24T22:25:44.822Z,70.40
2018-06-24T22:28:13.112Z,71.60
2018-06-24T22:30:41.598Z,70.50
2018-06-24T22:33:10.204Z,70.30
2018-06-24T22:35:38.756Z,69.60
2018-06-24T22:38:07.338Z,69.40
2018-06-24T22:40:35.909Z,69.80
2018-06-24T22:43:04.876Z,68.20
2018-06-24T22:45:33.428Z,68.90
2018-06-24T22:48:02.036Z,69.20
2018-06-24T22:50:30.552Z,70.30
2018-06-24T22:52:59.720Z,70.50
2018-06-24T22:55:28.229Z,70.30
2018-06-24T22:57:57.040Z,71.10
2018-06-24T23:00:25.761Z,71.50
2018-06-24T23:02:54.439Z,70.10
2018-06-24T23:05:22.939Z,70.10
2018-06-24T23:07:51.552Z,69.80
2018-06-24T23:10:20.038Z,68.80
2018-06-24T23:12:48.711Z,69.40
2018-06-24T23:15:17.125Z,70.30
2018-06-24T23:17:46.068Z,69.80
2018-06-24T23:20:14.543Z,70.30
2018-06-24T23:22:43.152Z,70.50
2018-06-24T23:25:11.622Z,69.90
2018-06-24T23:27:40.192Z,69.90
2018-06-24T23:30:08.800Z,69.30
2018-06-24T23:32:37.432Z,70.10
2018-06-24T23:35:06.545Z,70.30
2018-06-24T23:37:35.162Z,70.10
2018-06-24T23:40:03.809Z,70.50
2018-06-24T23:42:32.416Z,70.90
2018-06-24T23:45:00.931Z,70.50
2018-06-24T23:47:29.585Z,71.10
2018-06-24T23:49:58.705Z,70.60
2018-06-24T23:52:27.993Z,70.20
2018-06-24T23:54:56.476Z,70.30
2018-06-24T23:57:25.127Z,70.10
2018-06-24T23:59:53.615Z,69.90
